createdAt,value
2022-12-19T00:00:43.456Z,100.00
2022-12-19T00:03:11.496Z,100.00
2022-12-19T00:05:40.719Z,100.00
2022-12-19T00:08:17.813Z,100.00
2022-12-19T00:10:56.350Z,100.00
2022-12-19T00:13:25.436Z,100.00
2022-12-19T00:15:53.502Z,100.00
2022-12-19T00:18:21.419Z,100.00
2022-12-19T00:20:58.388Z,100.00
2022-12-19T00:23:30.459Z,100.00
2022-12-19T00:26:10.083Z,100.00
2022-12-19T00:28:38.003Z,100.00
2022-12-19T00:31:06.371Z,100.00
2022-12-19T00:33:34.915Z,100.00
2022-12-19T00:36:10.513Z,100.00
2022-12-19T00:38:39.977Z,100.00
2022-12-19T00:41:12.552Z,100.00
2022-12-19T00:43:40.895Z,100.00
2022-12-19T00:46:12.539Z,100.00
2022-12-19T00:48:42.185Z,100.00
2022-12-19T00:51:13.563Z,100.00
2022-12-19T00:53:44.639Z,100.00
2022-12-19T00:56:17.164Z,100.00
2022-12-19T00:58:47.392Z,100.00
2022-12-19T01:01:19.699Z,100.00
2022-12-19T01:04:19.159Z,100.00
2022-12-19T01:06:36.433Z,100.00
2022-12-19T01:09:07.983Z,100.00
2022-12-19T01:11:55.766Z,100.00
2022-12-19T01:14:23.682Z,100.00
2022-12-19T01:16:52.243Z,100.00
2022-12-19T01:19:20.705Z,100.00
2022-12-19T01:21:48.751Z,100.00
2022-12-19T01:24:18.919Z,100.00
2022-12-19T01:26:51.929Z,100.00
2022-12-19T01:29:19.704Z,100.00
2022-12-19T01:31:48.877Z,100.00
2022-12-19T01:34:16.727Z,100.00
2022-12-19T01:36:44.621Z,100.00
2022-12-19T01:39:12.393Z,100.00
2022-12-19T01:41:40.250Z,100.00
2022-12-19T01:44:10.121Z,100.00
2022-12-19T01:46:43.692Z,100.00
2022-12-19T01:49:25.029Z,100.00
2022-12-19T01:51:56.826Z,100.00
2022-12-19T01:54:35.826Z,100.00
2022-12-19T01:57:11.215Z,100.00
2022-12-19T01:59:46.037Z,100.00
2022-12-19T02:02:23.086Z,100.00
2022-12-19T02:04:51.050Z,100.00
2022-12-19T02:07:24.018Z,100.00
2022-12-19T02:09:57.777Z,100.00
2022-12-19T02:12:39.977Z,100.00
2022-12-19T02:15:14.989Z,100.00
2022-12-19T02:18:08.349Z,100.00
2022-12-19T02:21:14.847Z,100.00
2022-12-19T02:24:14.308Z,100.00
2022-12-19T02:27:25.511Z,100.00
2022-12-19T02:30:12.725Z,100.00
2022-12-19T02:32:59.279Z,100.00
2022-12-19T02:35:35.292Z,100.00
2022-12-19T02:38:16.005Z,100.00
2022-12-19T02:40:55.640Z,100.00
2022-12-19T02:43:31.038Z,100.00
2022-12-19T02:46:03.668Z,100.00
2022-12-19T02:48:35.297Z,100.00
2022-12-19T02:51:05.691Z,100.00
2022-12-19T02:53:36.365Z,100.00
2022-12-19T02:56:38.134Z,100.00
2022-12-19T02:59:24.925Z,100.00
2022-12-19T03:02:04.140Z,100.00
2022-12-19T03:04:48.010Z,100.00
2022-12-19T03:07:29.250Z,100.00
2022-12-19T03:10:12.793Z,100.00
2022-12-19T03:12:53.516Z,100.00
2022-12-19T03:15:23.774Z,100.00
2022-12-19T03:17:56.903Z,100.00
2022-12-19T03:20:40.269Z,100.00
2022-12-19T03:23:08.367Z,100.00
2022-12-19T03:25:36.245Z,100.00
2022-12-19T03:28:11.874Z,100.00
2022-12-19T03:30:44.611Z,100.00
2022-12-19T03:33:17.300Z,100.00
2022-12-19T03:35:48.796Z,100.00
2022-12-19T03:38:20.693Z,100.00
2022-12-19T03:40:49.985Z,100.00
2022-12-19T03:43:22.044Z,100.00
2022-12-19T03:46:02.040Z,100.00
2022-12-19T03:48:40.969Z,100.00
2022-12-19T03:51:26.683Z,100.00
2022-12-19T03:54:01.781Z,100.00
2022-12-19T03:56:40.049Z,100.00
2022-12-19T03:59:17.055Z,100.00
2022-12-19T04:01:46.837Z,100.00
2022-12-19T04:04:16.348Z,100.00
2022-12-19T04:06:47.028Z,100.00
2022-12-19T04:09:22.554Z,100.00
2022-12-19T04:11:58.752Z,100.00
2022-12-19T04:14:31.915Z,100.00
2022-12-19T04:17:15.786Z,100.00
2022-12-19T04:19:51.119Z,100.00
2022-12-19T04:22:29.256Z,100.00
2022-12-19T04:25:00.607Z,100.00
2022-12-19T04:27:35.679Z,100.00
2022-12-19T04:30:09.688Z,100.00
2022-12-19T04:32:40.471Z,100.00
2022-12-19T04:35:09.495Z,100.00
2022-12-19T04:37:38.867Z,100.00
2022-12-19T04:40:08.920Z,100.00
2022-12-19T04:42:37.072Z,100.00
2022-12-19T04:45:07.073Z,100.00
2022-12-19T04:47:35.512Z,100.00
2022-12-19T04:50:03.697Z,100.00
2022-12-19T04:52:31.520Z,100.00
2022-12-19T04:55:00.622Z,100.00
2022-12-19T04:57:30.026Z,100.00
2022-12-19T04:59:58.286Z,100.00
2022-12-19T05:02:26.941Z,100.00
2022-12-19T05:04:55.173Z,100.00
2022-12-19T05:07:23.074Z,100.00
2022-12-19T05:09:50.863Z,100.00
2022-12-19T05:12:20.044Z,100.00
2022-12-19T05:14:48.304Z,100.00
2022-12-19T05:17:16.283Z,100.00
2022-12-19T05:19:44.108Z,100.00
2022-12-19T05:22:11.847Z,100.00
2022-12-19T05:24:39.541Z,100.00
2022-12-19T05:27:07.579Z,100.00
2022-12-19T05:29:36.617Z,100.00
2022-12-19T05:32:04.546Z,100.00
2022-12-19T05:34:32.428Z,100.00
2022-12-19T05:37:02.920Z,100.00
2022-12-19T05:39:30.741Z,100.00
2022-12-19T05:41:58.542Z,100.00
2022-12-19T05:44:27.589Z,100.00
2022-12-19T05:46:56.927Z,100.00
2022-12-19T05:49:24.773Z,100.00
2022-12-19T05:51:52.905Z,100.00
2022-12-19T05:54:20.888Z,100.00
2022-12-19T05:56:48.620Z,100.00
2022-12-19T05:59:16.498Z,100.00
2022-12-19T06:01:44.409Z,100.00
2022-12-19T06:04:13.680Z,100.00
2022-12-19T06:06:41.455Z,100.00
2022-12-19T06:09:09.212Z,100.00
2022-12-19T06:11:36.976Z,100.00
2022-12-19T06:14:08.057Z,100.00
2022-12-19T06:16:35.945Z,100.00
2022-12-19T06:19:03.969Z,100.00
2022-12-19T06:21:33.145Z,100.00
2022-12-19T06:24:01.151Z,100.00
2022-12-19T06:26:29.424Z,100.00
2022-12-19T06:28:57.298Z,100.00
2022-12-19T06:31:25.816Z,100.00
2022-12-19T06:33:55.411Z,100.00
2022-12-19T06:36:26.102Z,100.00
2022-12-19T06:39:00.159Z,100.00
2022-12-19T06:41:46.943Z,100.00
2022-12-19T06:44:17.249Z,100.00
2022-12-19T06:46:45.145Z,100.00
2022-12-19T06:49:13.132Z,100.00
2022-12-19T06:51:41.320Z,100.00
2022-12-19T06:54:11.465Z,100.00
2022-12-19T06:56:41.969Z,100.00
2022-12-19T06:59:14.392Z,100.00
2022-12-19T07:01:59.721Z,100.00
2022-12-19T07:04:32.521Z,100.00
2022-12-19T07:07:01.317Z,100.00
2022-12-19T07:09:31.719Z,100.00
2022-12-19T07:12:00.901Z,100.00
2022-12-19T07:14:28.628Z,100.00
2022-12-19T07:17:00.863Z,100.00
2022-12-19T07:19:31.367Z,100.00
2022-12-19T07:22:02.146Z,100.00
2022-12-19T07:24:32.270Z,100.00
2022-12-19T07:27:00.193Z,100.00
2022-12-19T07:29:28.080Z,100.00
2022-12-19T07:31:55.978Z,100.00
2022-12-19T07:34:23.964Z,100.00
2022-12-19T07:36:51.866Z,100.00
2022-12-19T07:39:19.687Z,100.00
2022-12-19T07:41:48.777Z,100.00
2022-12-19T07:44:28.124Z,100.00
2022-12-19T07:46:56.236Z,100.00
2022-12-19T07:49:24.358Z,100.00
2022-12-19T07:51:52.132Z,100.00
2022-12-19T07:54:19.961Z,100.00
2022-12-19T07:56:49.724Z,100.00
2022-12-19T07:59:18.125Z,100.00
2022-12-19T08:01:46.743Z,100.00
2022-12-19T08:04:14.893Z,100.00
2022-12-19T08:06:42.687Z,100.00
2022-12-19T08:09:10.447Z,100.00
2022-12-19T08:11:38.910Z,100.00
2022-12-19T08:14:08.034Z,100.00
2022-12-19T08:17:10.921Z,100.00
2022-12-19T08:19:27.813Z,100.00
2022-12-19T08:21:55.958Z,100.00
2022-12-19T08:24:24.684Z,100.00
2022-12-19T08:26:52.748Z,100.00
2022-12-19T08:29:22.871Z,100.00
2022-12-19T08:31:51.180Z,100.00
2022-12-19T08:34:19.137Z,100.00
2022-12-19T08:36:47.073Z,100.00
2022-12-19T08:39:14.952Z,100.00
2022-12-19T08:41:42.666Z,100.00
2022-12-19T08:44:13.495Z,100.00
2022-12-19T08:46:49.440Z,100.00
2022-12-19T08:49:18.782Z,100.00
2022-12-19T08:51:47.118Z,100.00
2022-12-19T08:54:15.208Z,100.00
2022-12-19T08:56:46.299Z,100.00
2022-12-19T08:59:18.716Z,100.00
2022-12-19T09:01:56.333Z,100.00
2022-12-19T09:05:13.566Z,100.00
2022-12-19T09:07:15.286Z,100.00
2022-12-19T09:09:44.083Z,100.00
2022-12-19T09:12:13.603Z,100.00
2022-12-19T09:14:41.555Z,100.00
2022-12-19T09:17:10.855Z,100.00
2022-12-19T09:19:38.637Z,100.00
2022-12-19T09:22:07.738Z,100.00
2022-12-19T09:24:35.561Z,100.00
2022-12-19T09:27:03.471Z,100.00
2022-12-19T09:29:35.362Z,100.00
2022-12-19T09:32:03.662Z,100.00
2022-12-19T09:34:38.317Z,100.00
2022-12-19T09:37:08.379Z,100.00
2022-12-19T09:39:36.604Z,100.00
2022-12-19T09:42:27.666Z,100.00
2022-12-19T09:45:19.505Z,100.00
2022-12-19T09:48:01.859Z,100.00
2022-12-19T09:50:47.897Z,100.00
2022-12-19T09:53:25.628Z,100.00
2022-12-19T09:55:54.812Z,100.00
2022-12-19T09:58:41.006Z,100.00
2022-12-19T10:01:20.358Z,100.00
2022-12-19T10:04:00.991Z,100.00
2022-12-19T10:07:15.901Z,100.00
2022-12-19T10:11:18.591Z,100.00
2022-12-19T10:12:53.004Z,100.00
2022-12-19T10:15:35.774Z,100.00
2022-12-19T10:18:31.805Z,100.00
2022-12-19T10:21:07.608Z,100.00
2022-12-19T10:23:59.763Z,100.00
2022-12-19T10:26:39.915Z,100.00
2022-12-19T10:29:34.090Z,100.00
2022-12-19T10:32:13.890Z,100.00
2022-12-19T10:34:44.758Z,100.00
2022-12-19T10:37:25.351Z,100.00
2022-12-19T10:40:20.018Z,100.00
2022-12-19T10:43:09.376Z,100.00
2022-12-19T10:45:47.052Z,100.00
2022-12-19T10:48:19.718Z,100.00
2022-12-19T10:50:50.734Z,100.00
2022-12-19T10:53:28.779Z,100.00
2022-12-19T10:56:13.018Z,100.00
2022-12-19T10:58:44.387Z,100.00
2022-12-19T11:01:17.630Z,100.00
2022-12-19T11:03:54.564Z,100.00
2022-12-19T11:06:57.083Z,100.00
2022-12-19T11:09:29.255Z,100.00
2022-12-19T11:15:38.004Z,100.00
2022-12-19T11:19:42.376Z,100.00
2022-12-19T11:23:31.368Z,100.00
2022-12-19T11:30:05.066Z,100.00
2022-12-19T11:30:41.365Z,100.00
2022-12-19T11:30:47.997Z,100.00
2022-12-19T11:32:41.551Z,100.00
2022-12-19T11:35:19.921Z,100.00
2022-12-19T11:37:55.864Z,100.00
2022-12-19T11:40:34.076Z,100.00
2022-12-19T11:46:16.231Z,100.00
2022-12-19T11:48:53.712Z,100.00
2022-12-19T11:51:32.319Z,100.00
2022-12-19T11:54:13.904Z,100.00
2022-12-19T11:56:41.921Z,100.00
2022-12-19T11:59:18.308Z,100.00
2022-12-19T12:02:09.758Z,100.00
2022-12-19T12:05:08.624Z,100.00
2022-12-19T12:08:37.099Z,100.00
2022-12-19T12:15:23.545Z,100.00
2022-12-19T12:20:55.070Z,100.00
2022-12-19T12:29:35.381Z,100.00
2022-12-19T12:31:13.627Z,100.00
2022-12-19T12:31:41.877Z,100.00
2022-12-19T12:32:00.733Z,100.00
2022-12-19T12:32:03.001Z,100.00
2022-12-19T12:35:50.036Z,100.00
2022-12-19T12:38:43.277Z,100.00
2022-12-19T12:41:46.269Z,100.00
2022-12-19T12:44:15.524Z,100.00
2022-12-19T12:46:49.293Z,100.00
2022-12-19T12:49:35.966Z,100.00
2022-12-19T12:52:12.893Z,100.00
2022-12-19T12:54:45.354Z,100.00
2022-12-19T12:57:33.890Z,100.00
2022-12-19T13:00:24.695Z,100.00
2022-12-19T13:03:02.560Z,100.00
2022-12-19T13:05:53.385Z,100.00
2022-12-19T13:08:34.314Z,100.00
2022-12-19T13:11:06.780Z,100.00
2022-12-19T13:13:53.697Z,100.00
2022-12-19T13:16:54.276Z,100.00
2022-12-19T13:19:28.884Z,100.00
2022-12-19T13:22:23.079Z,100.00
2022-12-19T13:24:54.746Z,100.00
2022-12-19T13:27:39.220Z,100.00
2022-12-19T13:30:20.169Z,100.00
2022-12-19T13:33:10.095Z,100.00
2022-12-19T13:37:05.286Z,100.00
2022-12-19T13:39:58.052Z,100.00
2022-12-19T13:41:58.310Z,100.00
2022-12-19T13:44:27.635Z,100.00
2022-12-19T13:46:56.569Z,100.00
2022-12-19T13:49:34.768Z,100.00
2022-12-19T13:52:06.888Z,100.00
2022-12-19T13:54:46.734Z,100.00
2022-12-19T13:57:24.802Z,100.00
2022-12-19T14:00:00.031Z,100.00
2022-12-19T14:02:44.080Z,100.00
2022-12-19T14:05:34.065Z,100.00
2022-12-19T14:08:21.473Z,100.00
2022-12-19T14:11:29.020Z,100.00
2022-12-19T14:14:16.535Z,100.00
2022-12-19T14:16:48.504Z,100.00
2022-12-19T14:19:21.794Z,100.00
2022-12-19T14:22:11.804Z,100.00
2022-12-19T14:24:53.078Z,100.00
2022-12-19T14:28:24.935Z,100.00
2022-12-19T14:30:30.060Z,100.00
2022-12-19T14:33:45.357Z,100.00
2022-12-19T14:36:08.442Z,100.00
2022-12-19T14:39:24.217Z,100.00
2022-12-19T14:42:03.000Z,100.00
2022-12-19T14:52:26.128Z,100.00
2022-12-19T14:54:05.507Z,100.00
2022-12-19T14:54:06.895Z,100.00
2022-12-19T14:55:08.281Z,100.00
2022-12-19T14:57:00.310Z,100.00
2022-12-19T14:59:35.430Z,100.00
2022-12-19T15:02:28.167Z,100.00
2022-12-19T15:05:07.607Z,100.00
2022-12-19T15:07:40.991Z,100.00
2022-12-19T15:11:10.902Z,100.00
2022-12-19T15:14:58.566Z,100.00
2022-12-19T15:16:26.747Z,100.00
2022-12-19T15:18:58.545Z,100.00
2022-12-19T15:21:29.832Z,100.00
2022-12-19T15:23:58.071Z,100.00
2022-12-19T15:26:33.209Z,100.00
2022-12-19T15:29:02.893Z,100.00
2022-12-19T15:31:36.048Z,100.00
2022-12-19T15:34:35.025Z,100.00
2022-12-19T15:37:05.047Z,100.00
2022-12-19T15:39:32.880Z,100.00
2022-12-19T15:42:02.905Z,100.00
2022-12-19T15:44:37.828Z,100.00
2022-12-19T15:47:15.660Z,100.00
2022-12-19T15:49:43.617Z,100.00
2022-12-19T15:52:17.314Z,100.00
2022-12-19T15:54:50.075Z,100.00
2022-12-19T15:57:32.494Z,100.00
2022-12-19T16:00:09.015Z,100.00
2022-12-19T16:03:21.052Z,100.00
2022-12-19T16:05:29.505Z,100.00
2022-12-19T16:07:58.822Z,100.00
2022-12-19T16:10:29.472Z,100.00
2022-12-19T16:12:58.845Z,100.00
2022-12-19T16:15:33.696Z,100.00
2022-12-19T16:18:03.789Z,100.00
2022-12-19T16:20:39.330Z,100.00
2022-12-19T16:23:08.204Z,100.00
2022-12-19T16:25:41.212Z,100.00
2022-12-19T16:28:18.349Z,100.00
2022-12-19T16:30:47.396Z,100.00
2022-12-19T16:33:22.144Z,100.00
2022-12-19T16:36:07.650Z,100.00
2022-12-19T16:38:36.548Z,100.00
2022-12-19T16:41:04.618Z,100.00
2022-12-19T16:43:38.502Z,100.00
2022-12-19T16:46:08.595Z,100.00
2022-12-19T16:48:36.455Z,100.00
2022-12-19T16:51:04.828Z,100.00
2022-12-19T16:53:33.171Z,100.00
2022-12-19T16:56:02.437Z,100.00
2022-12-19T16:58:30.311Z,100.00
2022-12-19T17:00:59.602Z,100.00
2022-12-19T17:03:37.123Z,100.00
2022-12-19T17:06:05.039Z,100.00
2022-12-19T17:08:33.005Z,100.00
2022-12-19T17:11:00.794Z,100.00
2022-12-19T17:13:28.897Z,100.00
2022-12-19T17:16:55.354Z,100.00
2022-12-19T17:23:15.722Z,100.00
2022-12-19T17:25:44.714Z,100.00
2022-12-19T17:28:13.003Z,100.00
2022-12-19T17:30:43.958Z,100.00
2022-12-19T17:37:04.415Z,100.00
2022-12-19T17:39:34.523Z,100.00
2022-12-19T17:42:16.402Z,100.00
2022-12-19T17:44:44.280Z,100.00
2022-12-19T17:47:14.906Z,100.00
2022-12-19T17:49:43.431Z,100.00
2022-12-19T17:52:16.329Z,100.00
2022-12-19T17:54:44.367Z,100.00
2022-12-19T17:57:14.359Z,100.00
2022-12-19T17:59:42.616Z,100.00
2022-12-19T18:02:21.241Z,100.00
2022-12-19T18:04:50.679Z,100.00
2022-12-19T18:07:19.831Z,100.00
2022-12-19T18:09:47.769Z,100.00
2022-12-19T18:12:15.720Z,100.00
2022-12-19T18:14:43.688Z,100.00
2022-12-19T18:17:13.670Z,100.00
2022-12-19T18:19:41.741Z,100.00
2022-12-19T18:22:12.664Z,100.00
2022-12-19T18:24:45.518Z,100.00
2022-12-19T18:27:14.473Z,100.00
2022-12-19T18:29:42.884Z,100.00
2022-12-19T18:32:19.062Z,100.00
2022-12-19T18:34:47.129Z,100.00
2022-12-19T18:37:15.833Z,100.00
2022-12-19T18:39:44.877Z,100.00
2022-12-19T18:42:20.647Z,100.00
2022-12-19T18:44:48.605Z,100.00
2022-12-19T18:47:22.120Z,100.00
2022-12-19T18:49:51.854Z,100.00
2022-12-19T18:52:19.649Z,100.00
2022-12-19T18:54:48.917Z,100.00
2022-12-19T18:57:16.660Z,100.00
2022-12-19T18:59:44.424Z,100.00
2022-12-19T19:02:26.244Z,100.00
2022-12-19T19:04:55.691Z,100.00
2022-12-19T19:07:23.463Z,100.00
2022-12-19T19:09:52.602Z,99.90
2022-12-19T19:12:36.411Z,100.00
2022-12-19T19:15:05.534Z,98.82
2022-12-19T19:17:33.474Z,99.04
2022-12-19T19:20:02.625Z,98.48
2022-12-19T19:22:30.744Z,98.32
2022-12-19T19:24:59.864Z,99.36
2022-12-19T19:27:27.872Z,100.00
2022-12-19T19:29:55.626Z,99.33
2022-12-19T19:32:25.322Z,99.82
2022-12-19T19:34:55.503Z,100.00
2022-12-19T19:37:23.644Z,100.00
2022-12-19T19:39:51.457Z,99.88
2022-12-19T19:42:20.499Z,100.00
2022-12-19T19:44:48.263Z,100.00
2022-12-19T19:47:16.082Z,100.00
2022-12-19T19:49:44.043Z,100.00
2022-12-19T19:52:11.820Z,100.00
2022-12-19T19:54:39.674Z,100.00
2022-12-19T19:57:08.271Z,99.45
2022-12-19T19:59:38.013Z,98.74
2022-12-19T20:02:05.925Z,99.19
2022-12-19T20:04:34.445Z,98.83
2022-12-19T20:07:02.906Z,98.87
2022-12-19T20:09:31.302Z,98.17
2022-12-19T20:11:59.687Z,97.56
2022-12-19T20:14:27.774Z,98.19
2022-12-19T20:16:56.895Z,98.08
2022-12-19T20:19:25.041Z,97.99
2022-12-19T20:21:53.064Z,98.60
2022-12-19T20:24:20.913Z,99.01
2022-12-19T20:26:48.649Z,99.62
2022-12-19T20:29:16.592Z,99.53
2022-12-19T20:31:44.690Z,99.58
2022-12-19T20:34:13.764Z,100.00
2022-12-19T20:36:41.762Z,100.00
2022-12-19T20:39:09.874Z,100.00
2022-12-19T20:41:38.030Z,100.00
2022-12-19T20:44:05.879Z,99.74
2022-12-19T20:46:33.763Z,99.90
2022-12-19T20:49:01.632Z,99.08
2022-12-19T20:51:30.867Z,100.00
2022-12-19T20:53:58.713Z,100.00
2022-12-19T20:56:26.650Z,100.00
2022-12-19T20:58:54.803Z,100.00
2022-12-19T21:01:25.380Z,100.00
2022-12-19T21:03:53.705Z,100.00
2022-12-19T21:06:26.071Z,100.00
2022-12-19T21:08:56.975Z,100.00
2022-12-19T21:11:26.437Z,100.00
2022-12-19T21:13:54.522Z,100.00
2022-12-19T21:16:23.560Z,100.00
2022-12-19T21:18:52.029Z,100.00
2022-12-19T21:21:23.331Z,100.00
2022-12-19T21:23:51.933Z,100.00
2022-12-19T21:26:23.472Z,100.00
2022-12-19T21:28:52.544Z,100.00
2022-12-19T21:31:24.978Z,100.00
2022-12-19T21:33:55.386Z,100.00
2022-12-19T21:36:25.701Z,100.00
2022-12-19T21:38:57.089Z,100.00
2022-12-19T21:41:26.303Z,100.00
2022-12-19T21:43:56.383Z,100.00
2022-12-19T21:46:28.051Z,100.00
2022-12-19T21:48:57.717Z,100.00
2022-12-19T21:51:29.430Z,100.00
2022-12-19T21:54:00.833Z,100.00
2022-12-19T21:56:34.089Z,100.00
2022-12-19T21:59:05.051Z,100.00
2022-12-19T22:01:34.128Z,100.00
2022-12-19T22:04:06.577Z,100.00
2022-12-19T22:06:37.853Z,100.00
2022-12-19T22:09:11.951Z,100.00
2022-12-19T22:11:42.096Z,100.00
2022-12-19T22:14:12.698Z,100.00
2022-12-19T22:16:40.672Z,100.00
2022-12-19T22:19:10.805Z,100.00
2022-12-19T22:21:38.967Z,100.00
2022-12-19T22:24:10.633Z,100.00
2022-12-19T22:26:38.836Z,100.00
2022-12-19T22:29:11.505Z,100.00
2022-12-19T22:31:39.959Z,100.00
2022-12-19T22:34:12.192Z,100.00
2022-12-19T22:36:42.221Z,100.00
2022-12-19T22:39:14.003Z,100.00
2022-12-19T22:41:42.759Z,100.00
2022-12-19T22:44:18.456Z,100.00
2022-12-19T22:46:49.479Z,100.00
2022-12-19T22:49:17.807Z,100.00
2022-12-19T22:51:45.993Z,100.00
2022-12-19T22:54:14.078Z,100.00
2022-12-19T22:56:42.381Z,100.00
2022-12-19T22:59:13.232Z,100.00
2022-12-19T23:01:43.586Z,100.00
2022-12-19T23:04:15.002Z,100.00
2022-12-19T23:06:44.187Z,100.00
2022-12-19T23:09:17.963Z,100.00
2022-12-19T23:11:48.671Z,100.00
2022-12-19T23:14:20.405Z,100.00
2022-12-19T23:16:49.150Z,100.00
2022-12-19T23:19:18.373Z,100.00
2022-12-19T23:21:46.533Z,100.00
2022-12-19T23:24:14.992Z,100.00
2022-12-19T23:26:42.894Z,100.00
2022-12-19T23:29:13.768Z,100.00
2022-12-19T23:31:46.643Z,100.00
2022-12-19T23:34:15.573Z,100.00
2022-12-19T23:37:10.217Z,100.00
2022-12-19T23:39:31.063Z,100.00
2022-12-19T23:41:58.784Z,100.00
2022-12-19T23:44:27.409Z,100.00
2022-12-19T23:47:03.021Z,100.00
2022-12-19T23:49:32.723Z,100.00
2022-12-19T23:52:00.672Z,100.00
2022-12-19T23:54:28.563Z,100.00
2022-12-19T23:56:56.894Z,100.00
2022-12-19T23:59:24.763Z,100.00
